Time;durP1;ratioP1;P1;durP2;ratioP2;P2;SDS_P1;SDS_P2;PMS_P1;PMS_P2;Temp;Humidity;BMP_temperature;BMP_pressure;BME280_temperature;BME280_humidity;BME280_pressure;Samples;Min_cycle;Max_cycle;Signal;HPM_P1;HPM_P2
2023/12/05 00:01:29;;;;;;;12.02;5.25;;;-3.70;99.90;;;;;;5054950;28;20448;-69
2023/12/05 00:03:55;;;;;;;9.35;5.45;;;-3.70;99.90;;;;;;5055776;28;20037;-69
2023/12/05 00:06:20;;;;;;;9.90;4.80;;;-3.70;99.90;;;;;;5056005;28;20029;-69
2023/12/05 00:08:46;;;;;;;12.30;6.32;;;-3.70;99.90;;;;;;5056415;28;20065;-70
2023/12/05 00:11:12;;;;;;;10.80;5.28;;;-3.80;99.90;;;;;;5054696;28;20032;-69
2023/12/05 00:13:38;;;;;;;13.40;5.70;;;-3.80;99.90;;;;;;5056181;28;20108;-69
2023/12/05 00:16:04;;;;;;;9.82;5.63;;;-3.90;99.90;;;;;;5055854;28;20029;-69
2023/12/05 00:18:29;;;;;;;10.93;6.15;;;-4.00;99.90;;;;;;5055749;28;20029;-70
2023/12/05 00:20:55;;;;;;;10.43;5.45;;;-4.00;99.90;;;;;;5055668;28;20028;-69
2023/12/05 00:23:21;;;;;;;10.13;4.90;;;-4.00;99.90;;;;;;5054537;28;20117;-69
2023/12/05 00:25:47;;;;;;;8.57;4.30;;;-4.00;99.90;;;;;;5054340;28;20036;-70
2023/12/05 00:28:12;;;;;;;8.20;4.50;;;-4.00;99.90;;;;;;5055506;28;20666;-70
2023/12/05 00:30:38;;;;;;;10.98;5.25;;;-4.00;99.90;;;;;;5054328;28;20029;-69
2023/12/05 00:33:04;;;;;;;8.80;4.50;;;-4.00;99.90;;;;;;5054632;28;20025;-69
2023/12/05 00:35:29;;;;;;;9.32;4.90;;;-4.00;99.90;;;;;;5055993;28;20029;-70
2023/12/05 00:37:55;;;;;;;8.05;4.70;;;-4.00;99.90;;;;;;5055521;28;20392;-69
2023/12/05 00:40:21;;;;;;;7.50;4.25;;;-4.00;99.90;;;;;;5055565;28;20028;-69
2023/12/05 00:42:46;;;;;;;8.85;5.03;;;-4.00;99.90;;;;;;5055603;28;20044;-70
2023/12/05 00:45:13;;;;;;;8.75;4.50;;;-3.90;99.90;;;;;;5055415;28;20025;-70
2023/12/05 00:47:40;;;;;;;7.10;4.80;;;-3.90;99.90;;;;;;5055538;28;20025;-70
2023/12/05 00:50:06;;;;;;;9.65;4.55;;;-3.90;99.90;;;;;;5055105;28;20025;-70
2023/12/05 00:52:32;;;;;;;10.95;5.90;;;-3.90;99.90;;;;;;5054048;28;20484;-70
2023/12/05 00:54:57;;;;;;;8.75;5.03;;;-3.90;99.90;;;;;;5053872;28;20110;-70
2023/12/05 00:57:23;;;;;;;11.55;4.60;;;-3.90;99.90;;;;;;5053757;28;20025;-70
2023/12/05 00:59:49;;;;;;;13.07;6.53;;;-3.90;99.90;;;;;;5054108;28;20028;-70
2023/12/05 01:02:15;;;;;;;11.68;6.57;;;-4.00;99.90;;;;;;5055261;28;20025;-70
2023/12/05 01:04:40;;;;;;;16.77;6.68;;;-4.00;99.90;;;;;;5053697;28;20033;-70
2023/12/05 01:07:06;;;;;;;16.45;7.10;;;-4.10;99.90;;;;;;5054897;28;20485;-70
2023/12/05 01:09:32;;;;;;;9.15;5.00;;;-4.30;99.90;;;;;;5054745;28;20033;-70
2023/12/05 01:11:58;;;;;;;9.43;4.57;;;-4.30;99.90;;;;;;5054663;28;20033;-70
2023/12/05 01:14:23;;;;;;;8.00;4.35;;;-4.40;99.90;;;;;;5055280;28;20025;-70
2023/12/05 01:16:49;;;;;;;6.60;3.78;;;-4.40;99.90;;;;;;5052665;28;20031;-70
2023/12/05 01:19:15;;;;;;;8.20;4.13;;;-4.40;99.90;;;;;;5054622;28;20037;-70
2023/12/05 01:21:40;;;;;;;8.20;3.80;;;-4.30;99.90;;;;;;5054873;28;20112;-70
2023/12/05 01:24:07;;;;;;;5.50;3.75;;;-4.30;99.90;;;;;;5055324;28;20029;-70
2023/12/05 01:26:32;;;;;;;8.35;3.60;;;-4.30;99.90;;;;;;5054614;28;20021;-70
2023/12/05 01:28:58;;;;;;;5.47;3.33;;;-4.20;99.90;;;;;;5054570;28;20512;-70
2023/12/05 01:31:24;;;;;;;8.00;3.45;;;-4.20;99.90;;;;;;5054474;28;20025;-70
2023/12/05 01:33:49;;;;;;;5.30;3.38;;;-4.20;99.90;;;;;;5054687;28;20117;-70
2023/12/05 01:36:15;;;;;;;6.18;3.28;;;-4.20;99.90;;;;;;5054339;28;20370;-70
2023/12/05 01:38:41;;;;;;;6.72;3.40;;;-4.20;99.90;;;;;;5054176;28;20033;-70
2023/12/05 01:41:10;;;;;;;8.73;4.38;;;-4.10;99.90;;;;;;5052990;28;20382;-70
2023/12/05 01:43:35;;;;;;;10.05;4.88;;;-4.10;99.90;;;;;;5052895;28;20503;-70
2023/12/05 01:46:02;;;;;;;9.75;5.05;;;-4.10;99.90;;;;;;5054067;28;20086;-70
2023/12/05 01:48:30;;;;;;;9.13;4.45;;;-4.10;99.90;;;;;;5054242;28;20499;-70
2023/12/05 01:50:56;;;;;;;9.65;5.30;;;-4.10;99.90;;;;;;5053960;28;20028;-70
2023/12/05 01:53:22;;;;;;;8.68;4.57;;;-4.00;99.90;;;;;;5052879;28;20079;-70
2023/12/05 01:55:49;;;;;;;7.85;4.18;;;-4.00;99.90;;;;;;5052692;28;20061;-70
2023/12/05 01:58:16;;;;;;;9.23;4.47;;;-4.10;99.90;;;;;;5052643;28;20021;-70
2023/12/05 02:00:42;;;;;;;7.65;4.30;;;-4.10;99.90;;;;;;5052508;28;20025;-70
2023/12/05 02:03:08;;;;;;;11.95;5.60;;;-4.00;99.90;;;;;;5053864;28;20021;-70
2023/12/05 02:05:35;;;;;;;11.38;5.47;;;-4.00;99.90;;;;;;5053819;28;20029;-70
2023/12/05 02:08:01;;;;;;;12.48;5.88;;;-4.00;99.90;;;;;;5053984;28;20523;-70
2023/12/05 02:10:27;;;;;;;9.45;4.88;;;-4.00;99.90;;;;;;5053802;28;20025;-70
2023/12/05 02:12:52;;;;;;;10.90;5.00;;;-4.00;99.90;;;;;;5053589;28;20029;-70
2023/12/05 02:15:18;;;;;;;9.38;4.95;;;-4.00;99.90;;;;;;5053629;28;20135;-70
2023/12/05 02:18:15;;;;;;;10.23;5.28;;;-4.00;99.90;;;;;;5052675;28;20054;-70
2023/12/05 02:20:57;;;;;;;9.32;5.00;;;-4.10;99.90;;;;;;5053558;28;20021;-70
2023/12/05 02:24:03;;;;;;;10.68;4.93;;;-4.10;99.90;;;;;;5053685;28;20029;-70
2023/12/05 02:27:00;;;;;;;9.02;4.72;;;-4.20;99.90;;;;;;5004678;28;20041;-70
2023/12/05 02:29:25;;;;;;;8.68;3.90;;;-4.20;99.90;;;;;;5052119;28;20021;-70
2023/12/05 02:31:51;;;;;;;8.30;4.43;;;-4.20;99.90;;;;;;5053748;28;20032;-70
2023/12/05 02:34:17;;;;;;;8.98;4.78;;;-4.30;99.90;;;;;;5052264;28;20023;-70
2023/12/05 02:37:08;;;;;;;8.40;4.18;;;-4.30;99.90;;;;;;5053372;28;20029;-70
2023/12/05 02:39:43;;;;;;;7.30;4.38;;;-4.20;99.90;;;;;;5053294;28;20049;-70
2023/12/05 02:42:13;;;;;;;8.38;4.40;;;-4.10;99.90;;;;;;5053549;28;20029;-70
2023/12/05 02:44:50;;;;;;;10.13;5.03;;;-4.10;99.90;;;;;;5053614;28;20029;-70
2023/12/05 02:47:19;;;;;;;7.78;4.50;;;-4.00;99.90;;;;;;5053236;28;20029;-70
2023/12/05 02:49:46;;;;;;;11.98;4.68;;;-4.00;99.90;;;;;;5053415;28;20025;-70
2023/12/05 02:52:11;;;;;;;11.68;4.43;;;-4.00;99.90;;;;;;5053228;28;20025;-70
2023/12/05 02:54:37;;;;;;;6.72;3.70;;;-3.90;99.90;;;;;;5052266;28;20036;-70
2023/12/05 02:57:03;;;;;;;19.67;8.05;;;-3.90;99.90;;;;;;5051843;28;20563;-70
2023/12/05 02:59:28;;;;;;;10.65;5.78;;;-3.90;99.90;;;;;;5051771;28;20128;-70
2023/12/05 03:01:54;;;;;;;9.32;5.20;;;-3.90;99.90;;;;;;5053387;28;20481;-70
2023/12/05 03:04:20;;;;;;;8.98;4.55;;;-4.00;99.90;;;;;;5051827;28;20485;-70
2023/12/05 03:06:45;;;;;;;9.10;4.90;;;-4.00;99.90;;;;;;5053069;28;20377;-71
2023/12/05 03:09:12;;;;;;;8.38;4.40;;;-3.90;99.90;;;;;;5052955;28;20048;-70
2023/12/05 03:11:37;;;;;;;5.60;3.83;;;-3.90;99.90;;;;;;5052470;28;20086;-72
2023/12/05 03:14:06;;;;;;;8.57;4.78;;;-3.90;99.90;;;;;;5035497;28;20115;-72
2023/12/05 03:16:32;;;;;;;8.50;4.75;;;-3.90;99.90;;;;;;5053520;28;20096;-72
2023/12/05 03:18:57;;;;;;;12.52;4.72;;;-3.90;99.90;;;;;;5051691;28;20045;-72
2023/12/05 03:21:23;;;;;;;8.02;4.35;;;-3.90;99.90;;;;;;5053190;28;20507;-72
2023/12/05 03:23:49;;;;;;;7.70;4.82;;;-3.90;99.90;;;;;;5052934;28;20444;-72
2023/12/05 03:26:21;;;;;;;11.07;4.30;;;-3.90;99.90;;;;;;5035082;28;20116;-72
2023/12/05 03:28:51;;;;;;;7.95;4.55;;;-3.90;99.90;;;;;;5052720;28;20032;-72
2023/12/05 03:31:17;;;;;;;8.57;4.28;;;-3.80;99.90;;;;;;5052856;28;20104;-72
2023/12/05 03:33:45;;;;;;;9.55;5.10;;;-3.80;99.90;;;;;;5052751;28;20060;-72
2023/12/05 03:36:12;;;;;;;11.32;5.88;;;-3.90;99.90;;;;;;5052791;28;20025;-72
2023/12/05 03:38:39;;;;;;;12.25;7.18;;;-3.90;99.90;;;;;;5053466;28;20086;-72
2023/12/05 03:41:05;;;;;;;11.23;6.78;;;-3.90;99.90;;;;;;5056623;28;20021;-72
2023/12/05 03:43:31;;;;;;;12.18;6.82;;;-3.90;99.90;;;;;;5055165;28;20033;-72
2023/12/05 03:45:56;;;;;;;12.23;6.70;;;-3.90;99.90;;;;;;5055464;28;20478;-72
2023/12/05 03:48:22;;;;;;;14.27;7.07;;;-3.80;99.90;;;;;;5056348;28;20033;-72
2023/12/05 03:50:48;;;;;;;10.15;6.60;;;-3.80;99.90;;;;;;5055141;28;20068;-72
2023/12/05 03:53:13;;;;;;;10.25;6.32;;;-3.80;99.90;;;;;;5056309;28;20040;-72
2023/12/05 03:55:39;;;;;;;12.55;5.55;;;-3.70;99.90;;;;;;5055359;28;20025;-72
2023/12/05 03:58:05;;;;;;;11.90;5.85;;;-3.70;99.90;;;;;;5055057;28;20021;-72
2023/12/05 04:00:30;;;;;;;7.57;4.10;;;-3.70;99.90;;;;;;5056021;28;20029;-72
2023/12/05 04:02:56;;;;;;;6.72;3.95;;;-3.60;99.90;;;;;;5056108;28;20036;-72
2023/12/05 04:05:22;;;;;;;11.45;4.57;;;-3.60;99.90;;;;;;5056303;28;20099;-72
2023/12/05 04:07:47;;;;;;;7.97;3.70;;;-3.60;99.90;;;;;;5054728;28;20477;-72
2023/12/05 04:10:13;;;;;;;7.80;3.67;;;-3.60;99.90;;;;;;5055821;28;20543;-72
2023/12/05 04:12:39;;;;;;;6.03;3.65;;;-3.60;99.90;;;;;;5055885;28;20128;-72
2023/12/05 04:15:06;;;;;;;6.38;3.45;;;-3.60;99.90;;;;;;5055863;28;20108;-72
2023/12/05 04:17:32;;;;;;;5.95;3.58;;;-3.60;99.90;;;;;;5055819;28;20037;-72
2023/12/05 04:19:57;;;;;;;6.85;3.80;;;-3.50;99.90;;;;;;5055759;28;20035;-72
2023/12/05 04:22:23;;;;;;;6.78;3.67;;;-3.60;99.90;;;;;;5056063;28;20440;-72
2023/12/05 04:24:49;;;;;;;8.35;4.72;;;-3.60;99.90;;;;;;5055889;28;20032;-72
2023/12/05 04:27:15;;;;;;;9.45;4.95;;;-3.50;99.90;;;;;;5055713;28;20021;-72
2023/12/05 04:29:42;;;;;;;7.47;3.92;;;-3.50;99.90;;;;;;5055418;28;20103;-72
2023/12/05 04:32:07;;;;;;;7.93;4.30;;;-3.50;99.90;;;;;;5055850;28;20427;-72
2023/12/05 04:34:35;;;;;;;6.20;3.50;;;-3.50;99.90;;;;;;5055530;28;20029;-72
2023/12/05 04:37:00;;;;;;;8.82;4.38;;;-3.50;99.90;;;;;;5055441;28;20044;-72
2023/12/05 04:39:26;;;;;;;7.63;3.97;;;-3.50;99.90;;;;;;5055495;28;20067;-72
2023/12/05 04:41:52;;;;;;;6.93;3.85;;;-3.50;99.90;;;;;;5037596;28;20041;-72
2023/12/05 04:44:17;;;;;;;9.45;4.20;;;-3.50;99.90;;;;;;5056244;28;20017;-72
2023/12/05 04:46:43;;;;;;;6.75;3.90;;;-3.50;99.90;;;;;;5054281;28;20036;-72
2023/12/05 04:49:09;;;;;;;6.97;4.00;;;-3.50;99.90;;;;;;5053918;28;20061;-71
2023/12/05 04:51:34;;;;;;;6.95;4.03;;;-3.50;99.90;;;;;;5054049;28;20406;-72
2023/12/05 04:54:00;;;;;;;7.40;3.85;;;-3.50;99.90;;;;;;5055437;28;20040;-72
2023/12/05 04:56:26;;;;;;;5.75;3.17;;;-3.50;99.90;;;;;;5055119;28;20561;-72
2023/12/05 04:58:52;;;;;;;5.90;3.25;;;-3.50;99.90;;;;;;5055011;28;20032;-72
2023/12/05 05:01:18;;;;;;;7.72;3.65;;;-3.50;99.90;;;;;;5054104;28;20028;-72
2023/12/05 05:03:43;;;;;;;5.50;3.63;;;-3.50;99.90;;;;;;5053884;28;20037;-72
2023/12/05 05:06:10;;;;;;;7.85;3.88;;;-3.50;99.90;;;;;;5054918;28;20039;-72
2023/12/05 05:08:36;;;;;;;7.07;4.03;;;-3.50;99.90;;;;;;5053553;28;20413;-72
2023/12/05 05:11:01;;;;;;;6.80;4.13;;;-3.40;99.90;;;;;;5054747;28;20033;-73
2023/12/05 05:13:27;;;;;;;8.23;4.00;;;-3.50;99.90;;;;;;5053486;28;20426;-72
2023/12/05 05:15:53;;;;;;;6.20;3.53;;;-3.50;99.90;;;;;;5054757;28;20025;-72
2023/12/05 05:18:18;;;;;;;6.40;3.28;;;-3.50;99.90;;;;;;5054979;28;20044;-72
2023/12/05 05:20:44;;;;;;;8.75;4.05;;;-3.50;99.90;;;;;;5053262;28;20112;-72
2023/12/05 05:23:10;;;;;;;8.07;4.55;;;-3.50;99.90;;;;;;5053549;28;20029;-72
2023/12/05 05:25:35;;;;;;;7.70;4.28;;;-3.60;99.90;;;;;;5053178;28;20032;-72
2023/12/05 05:28:01;;;;;;;8.65;4.35;;;-3.70;99.90;;;;;;5054504;28;20037;-72
2023/12/05 05:30:27;;;;;;;8.10;4.55;;;-3.70;99.90;;;;;;5054219;28;20025;-72
2023/12/05 05:32:53;;;;;;;11.88;5.90;;;-3.70;99.90;;;;;;5053447;28;20043;-72
2023/12/05 05:35:18;;;;;;;9.38;5.32;;;-3.70;99.90;;;;;;5053191;28;20106;-72
2023/12/05 05:37:44;;;;;;;9.82;5.55;;;-3.70;99.90;;;;;;5054302;28;20029;-72
2023/12/05 05:40:10;;;;;;;12.73;6.75;;;-3.70;99.90;;;;;;5053057;28;20040;-72
2023/12/05 05:42:36;;;;;;;31.00;15.63;;;-3.70;99.90;;;;;;5054198;28;20025;-71
2023/12/05 05:45:02;;;;;;;24.08;12.35;;;-3.70;99.90;;;;;;5052979;28;20104;-73
2023/12/05 05:47:28;;;;;;;20.33;9.38;;;-3.70;99.90;;;;;;5054112;28;20025;-72
2023/12/05 05:49:54;;;;;;;17.35;9.55;;;-3.80;99.90;;;;;;5053942;28;20484;-72
2023/12/05 05:52:20;;;;;;;14.73;8.73;;;-3.80;99.90;;;;;;5054075;28;20044;-73
2023/12/05 05:54:49;;;;;;;18.60;9.02;;;-3.80;99.90;;;;;;5054228;28;20100;-73
2023/12/05 05:57:14;;;;;;;16.10;8.32;;;-3.80;99.90;;;;;;5053977;28;20017;-73
2023/12/05 05:59:43;;;;;;;16.70;7.32;;;-3.80;99.90;;;;;;5053905;28;20501;-73
2023/12/05 06:02:12;;;;;;;10.40;6.07;;;-3.80;99.90;;;;;;5053645;28;20033;-73
2023/12/05 06:04:41;;;;;;;13.60;6.00;;;-3.80;99.90;;;;;;5052672;28;20056;-73
2023/12/05 06:07:08;;;;;;;11.55;5.80;;;-3.80;99.90;;;;;;5053826;28;20072;-73
2023/12/05 06:09:34;;;;;;;9.48;5.07;;;-3.80;99.90;;;;;;5052451;28;20503;-73
2023/12/05 06:12:00;;;;;;;58.08;23.58;;;-3.80;99.90;;;;;;5053611;28;20063;-73
2023/12/05 06:14:25;;;;;;;22.85;9.90;;;-3.90;99.90;;;;;;5053631;28;20025;-73
2023/12/05 06:16:51;;;;;;;22.27;10.25;;;-4.00;99.90;;;;;;5053682;28;20044;-72
2023/12/05 06:19:17;;;;;;;18.15;8.80;;;-4.00;99.90;;;;;;5054196;28;20033;-72
2023/12/05 06:21:43;;;;;;;20.52;9.60;;;-4.00;99.90;;;;;;5052383;28;20037;-73
2023/12/05 06:24:09;;;;;;;18.33;8.50;;;-4.00;99.90;;;;;;5052626;28;20025;-73
2023/12/05 06:26:35;;;;;;;13.57;7.53;;;-4.00;99.90;;;;;;5053570;28;20107;-73
2023/12/05 06:29:06;;;;;;;9.18;5.75;;;-4.00;99.90;;;;;;5053422;28;20519;-73
2023/12/05 06:31:32;;;;;;;9.45;5.28;;;-4.00;99.90;;;;;;5053473;28;20029;-73
2023/12/05 06:33:59;;;;;;;10.88;5.43;;;-3.90;99.90;;;;;;5052165;28;20036;-73
2023/12/05 06:36:25;;;;;;;8.38;4.65;;;-3.90;99.90;;;;;;5053989;28;20087;-73
2023/12/05 06:38:50;;;;;;;10.60;5.32;;;-3.90;99.90;;;;;;5053299;28;20057;-73
2023/12/05 06:41:16;;;;;;;13.98;7.18;;;-3.90;99.90;;;;;;5052036;28;20405;-73
2023/12/05 06:43:42;;;;;;;14.63;6.93;;;-3.90;99.90;;;;;;5053932;28;20492;-73
2023/12/05 06:46:07;;;;;;;9.30;5.53;;;-3.90;99.90;;;;;;5035447;28;20489;-73
2023/12/05 06:48:33;;;;;;;11.40;5.78;;;-3.90;99.90;;;;;;5053491;28;20040;-73
2023/12/05 06:50:59;;;;;;;10.23;6.03;;;-3.90;99.90;;;;;;5053103;28;20029;-73
2023/12/05 06:53:25;;;;;;;11.27;6.07;;;-3.90;99.90;;;;;;5052019;28;20108;-73
2023/12/05 06:55:50;;;;;;;8.85;5.85;;;-3.90;99.90;;;;;;5053191;28;20025;-73
2023/12/05 06:58:16;;;;;;;10.57;5.40;;;-3.90;99.90;;;;;;5053250;28;20035;-73
2023/12/05 07:00:42;;;;;;;10.20;4.95;;;-3.80;99.90;;;;;;5052182;28;20033;-73
2023/12/05 07:03:08;;;;;;;7.78;4.60;;;-3.80;99.90;;;;;;5051924;28;20029;-73
2023/12/05 07:05:34;;;;;;;8.63;4.85;;;-3.80;99.90;;;;;;5053145;28;20028;-73
2023/12/05 07:08:00;;;;;;;9.32;4.85;;;-3.80;99.90;;;;;;5053146;28;20021;-73
2023/12/05 07:10:27;;;;;;;10.25;4.97;;;-3.80;99.90;;;;;;5051633;28;20033;-73
2023/12/05 07:12:52;;;;;;;9.23;5.57;;;-3.80;99.90;;;;;;5052947;28;20029;-73
2023/12/05 07:15:18;;;;;;;9.48;5.60;;;-3.80;99.90;;;;;;5056214;28;20034;-73
2023/12/05 07:17:44;;;;;;;8.80;5.40;;;-3.70;99.90;;;;;;5056969;28;20481;-73
2023/12/05 07:20:10;;;;;;;10.95;6.53;;;-3.70;99.90;;;;;;5057303;28;20029;-73
2023/12/05 07:22:36;;;;;;;11.95;5.43;;;-3.70;99.90;;;;;;5057554;28;20444;-73
2023/12/05 07:25:01;;;;;;;11.73;6.60;;;-3.70;99.90;;;;;;5056964;28;20064;-73
2023/12/05 07:27:27;;;;;;;8.23;5.45;;;-3.60;99.90;;;;;;5056892;28;20037;-73
2023/12/05 07:29:53;;;;;;;8.15;5.68;;;-3.60;99.90;;;;;;5057130;28;20343;-73
2023/12/05 07:32:19;;;;;;;8.98;5.57;;;-3.60;99.90;;;;;;5056180;28;20029;-74
2023/12/05 07:34:45;;;;;;;11.65;6.38;;;-3.60;99.90;;;;;;5055399;28;20029;-73
2023/12/05 07:37:11;;;;;;;9.63;5.95;;;-3.60;99.90;;;;;;5056525;28;20459;-74
2023/12/05 07:39:37;;;;;;;12.45;5.97;;;-3.60;99.90;;;;;;5056220;28;20041;-73
2023/12/05 07:42:03;;;;;;;18.13;8.73;;;-3.50;99.90;;;;;;5055544;28;20068;-74
2023/12/05 07:44:28;;;;;;;22.88;12.95;;;-3.50;99.90;;;;;;5056512;28;20389;-73
2023/12/05 07:46:54;;;;;;;21.58;11.65;;;-3.50;99.90;;;;;;5055237;28;20366;-73
2023/12/05 07:49:20;;;;;;;21.23;11.13;;;-3.50;99.90;;;;;;5056634;28;20434;-73
2023/12/05 07:51:48;;;;;;;55.83;27.85;;;-3.40;99.90;;;;;;5055300;28;20040;-73
2023/12/05 07:54:13;;;;;;;34.25;17.45;;;-3.40;99.90;;;;;;5056610;28;20028;-73
2023/12/05 07:56:39;;;;;;;31.70;16.92;;;-3.40;99.90;;;;;;5056458;28;20029;-73
2023/12/05 07:59:05;;;;;;;30.25;14.75;;;-3.40;99.90;;;;;;5056145;28;20024;-73
2023/12/05 08:01:31;;;;;;;28.10;15.00;;;-3.40;99.90;;;;;;5056268;28;20052;-73
2023/12/05 08:03:57;;;;;;;31.38;14.65;;;-3.50;99.90;;;;;;5056434;28;20033;-73
2023/12/05 08:06:24;;;;;;;26.15;13.85;;;-3.50;99.90;;;;;;5056177;28;20021;-73
2023/12/05 08:08:50;;;;;;;28.02;14.18;;;-3.50;99.90;;;;;;5056037;28;20064;-73
2023/12/05 08:11:16;;;;;;;44.03;20.77;;;-3.50;99.90;;;;;;5054690;28;20507;-73
2023/12/05 08:13:42;;;;;;;37.20;18.52;;;-3.40;99.90;;;;;;5056045;28;20037;-73
2023/12/05 08:16:08;;;;;;;26.60;13.40;;;-3.40;99.90;;;;;;5056228;28;20051;-73
2023/12/05 08:18:34;;;;;;;23.52;11.00;;;-3.30;99.90;;;;;;5055858;28;20033;-73
2023/12/05 08:21:00;;;;;;;25.55;10.93;;;-3.30;99.90;;;;;;5054597;28;20025;-73
2023/12/05 08:23:25;;;;;;;18.52;8.25;;;-3.20;99.90;;;;;;5054532;28;20029;-73
2023/12/05 08:25:51;;;;;;;12.25;7.45;;;-3.10;99.90;;;;;;5055536;28;20504;-73
2023/12/05 08:28:17;;;;;;;11.40;6.85;;;-3.10;99.90;;;;;;5056084;28;20472;-73
2023/12/05 08:30:42;;;;;;;12.32;6.20;;;-3.00;99.90;;;;;;5055654;28;20471;-73
2023/12/05 08:33:09;;;;;;;12.70;6.75;;;-2.90;99.90;;;;;;5055866;28;20104;-73
2023/12/05 08:35:34;;;;;;;34.60;16.05;;;-2.80;99.90;;;;;;5054532;28;20021;-73
2023/12/05 08:38:00;;;;;;;20.20;10.60;;;-2.80;99.90;;;;;;5055442;28;20025;-73
2023/12/05 08:40:26;;;;;;;21.17;11.27;;;-2.70;99.90;;;;;;5055406;28;20025;-73
2023/12/05 08:42:51;;;;;;;14.82;8.57;;;-2.70;99.90;;;;;;5055452;28;20033;-73
2023/12/05 08:45:18;;;;;;;16.33;7.95;;;-2.60;99.90;;;;;;5054114;28;20029;-73
2023/12/05 08:47:44;;;;;;;11.25;6.55;;;-2.60;99.90;;;;;;5054141;28;20033;-73
2023/12/05 08:50:10;;;;;;;11.40;6.70;;;-2.50;99.90;;;;;;5053876;28;20035;-73
2023/12/05 08:52:36;;;;;;;13.75;6.72;;;-2.50;99.90;;;;;;5055217;28;20052;-73
2023/12/05 08:55:02;;;;;;;12.13;7.80;;;-2.40;99.90;;;;;;5055142;28;20104;-73
2023/12/05 08:57:28;;;;;;;15.82;8.77;;;-2.30;99.90;;;;;;5053794;28;20502;-73
2023/12/05 08:59:53;;;;;;;18.55;9.13;;;-2.30;99.90;;;;;;5054977;28;20105;-73
2023/12/05 09:02:20;;;;;;;14.48;7.70;;;-2.30;99.90;;;;;;5053717;28;20029;-73
2023/12/05 09:04:45;;;;;;;14.75;7.75;;;-2.20;99.90;;;;;;5054996;28;20477;-73
2023/12/05 09:07:11;;;;;;;13.65;7.68;;;-2.20;99.90;;;;;;5054958;28;20036;-73
2023/12/05 09:09:41;;;;;;;13.57;6.97;;;-2.20;99.90;;;;;;5054683;28;20033;-73
2023/12/05 09:12:07;;;;;;;12.40;6.65;;;-2.10;99.90;;;;;;5055133;28;20033;-73
2023/12/05 09:14:34;;;;;;;15.13;7.13;;;-2.10;99.90;;;;;;5053624;28;20584;-73
2023/12/05 09:17:01;;;;;;;13.50;6.78;;;-2.10;99.90;;;;;;5054744;28;20021;-73
2023/12/05 09:19:26;;;;;;;13.63;7.53;;;-2.00;99.90;;;;;;5054739;28;20031;-73
2023/12/05 09:21:52;;;;;;;13.90;8.20;;;-2.00;99.90;;;;;;5053387;28;20123;-73
2023/12/05 09:24:18;;;;;;;17.02;8.45;;;-2.00;99.90;;;;;;5054590;28;20037;-73
2023/12/05 09:26:44;;;;;;;17.10;9.10;;;-1.90;99.90;;;;;;5054554;28;20112;-73
2023/12/05 09:29:09;;;;;;;17.52;9.30;;;-1.80;99.90;;;;;;5054375;28;20033;-73
2023/12/05 09:31:35;;;;;;;15.57;8.55;;;-1.80;99.90;;;;;;5054456;28;20032;-73
2023/12/05 09:34:03;;;;;;;18.23;9.38;;;-1.70;99.90;;;;;;5054689;28;20029;-73
2023/12/05 09:36:30;;;;;;;13.45;8.23;;;-1.60;99.90;;;;;;5052450;28;20029;-73
2023/12/05 09:38:56;;;;;;;13.82;8.20;;;-1.50;99.90;;;;;;5054279;28;20039;-72
2023/12/05 09:41:22;;;;;;;17.38;8.82;;;-1.40;99.90;;;;;;5053002;28;20116;-73
2023/12/05 09:43:51;;;;;;;19.05;9.13;;;-1.30;99.90;;;;;;5054294;28;20033;-72
2023/12/05 09:46:20;;;;;;;19.80;8.90;;;-1.20;99.90;;;;;;5052925;28;20056;-72
2023/12/05 09:48:47;;;;;;;16.40;8.48;;;-1.10;99.90;;;;;;5054045;28;20366;-73
2023/12/05 09:51:16;;;;;;;23.75;11.18;;;-1.00;99.90;;;;;;5054513;28;20025;-73
2023/12/05 09:53:43;;;;;;;20.52;10.07;;;-0.90;99.90;;;;;;5052703;28;20024;-73
2023/12/05 09:56:16;;;;;;;19.48;9.32;;;-0.90;99.90;;;;;;5052853;28;20036;-73
2023/12/05 09:58:44;;;;;;;19.35;11.00;;;-0.80;99.90;;;;;;5053906;28;20040;-72
2023/12/05 10:01:15;;;;;;;17.02;9.18;;;-0.70;99.90;;;;;;5053991;28;20053;-72
2023/12/05 10:03:42;;;;;;;18.45;10.25;;;-0.60;99.90;;;;;;5053891;28;20037;-72
2023/12/05 10:06:10;;;;;;;18.15;9.30;;;-0.50;99.90;;;;;;5053774;28;20036;-73
2023/12/05 10:08:37;;;;;;;17.05;9.38;;;-0.40;99.90;;;;;;5052538;28;20086;-73
2023/12/05 10:11:04;;;;;;;15.05;9.15;;;-0.30;99.90;;;;;;5053836;28;20389;-74
2023/12/05 10:13:31;;;;;;;14.95;8.98;;;-0.20;99.90;;;;;;5054250;28;20021;-73
2023/12/05 10:15:58;;;;;;;14.57;8.65;;;-0.10;99.90;;;;;;5052417;28;20202;-72
2023/12/05 10:18:27;;;;;;;17.23;9.05;;;0.00;99.90;;;;;;5053609;28;20072;-72
2023/12/05 10:20:53;;;;;;;17.23;9.20;;;-0.10;99.90;;;;;;5052425;28;20029;-73
2023/12/05 10:23:19;;;;;;;14.13;8.23;;;-0.10;99.90;;;;;;5053563;28;20032;-73
2023/12/05 10:25:45;;;;;;;19.35;9.43;;;-0.10;99.90;;;;;;5053511;28;20531;-73
2023/12/05 10:28:12;;;;;;;17.55;8.70;;;-0.10;99.90;;;;;;5052166;28;20025;-73
2023/12/05 10:30:38;;;;;;;14.55;7.25;;;-0.10;99.90;;;;;;5052031;28;20103;-72
2023/12/05 10:33:15;;;;;;;14.13;6.85;;;-0.20;99.90;;;;;;5053474;28;20033;-73
2023/12/05 10:35:42;;;;;;;14.88;6.97;;;-0.20;99.90;;;;;;5053686;28;20025;-73
2023/12/05 10:38:09;;;;;;;14.15;7.70;;;-0.30;99.90;;;;;;5052066;28;20051;-72
2023/12/05 10:41:00;;;;;;;17.55;7.70;;;-0.30;99.90;;;;;;5051975;28;20098;-72
2023/12/05 10:43:27;;;;;;;11.43;5.35;;;-0.30;99.90;;;;;;5053661;28;20021;-72
2023/12/05 10:45:54;;;;;;;11.75;6.97;;;-0.30;99.90;;;;;;5053190;28;20029;-72
2023/12/05 10:48:23;;;;;;;10.75;6.80;;;-0.30;99.90;;;;;;5051142;28;20025;-72
2023/12/05 10:50:51;;;;;;;12.25;7.20;;;-0.30;99.90;;;;;;5053340;28;20158;-72
2023/12/05 10:53:17;;;;;;;12.95;7.28;;;-0.20;99.90;;;;;;5035592;28;20048;-72
2023/12/05 10:55:43;;;;;;;11.70;6.88;;;-0.10;99.90;;;;;;5052196;28;20036;-72
2023/12/05 10:58:10;;;;;;;14.25;7.20;;;0.00;99.90;;;;;;5053723;28;20465;-72
2023/12/05 11:00:37;;;;;;;11.77;6.63;;;0.10;99.90;;;;;;5053084;28;20099;-72
2023/12/05 11:03:03;;;;;;;16.95;8.20;;;0.10;99.90;;;;;;5051940;28;20513;-72
2023/12/05 11:05:31;;;;;;;18.85;9.30;;;0.20;99.90;;;;;;5053112;28;20039;-72
2023/12/05 11:07:57;;;;;;;17.92;9.25;;;0.20;99.90;;;;;;5051928;28;20032;-72
2023/12/05 11:10:25;;;;;;;21.17;10.27;;;0.20;99.90;;;;;;5052863;28;20025;-72
2023/12/05 11:12:52;;;;;;;19.13;10.55;;;0.20;99.90;;;;;;5051794;28;20044;-72
2023/12/05 11:15:36;;;;;;;17.63;10.23;;;0.20;99.90;;;;;;5051813;28;20436;-72
2023/12/05 11:18:29;;;;;;;24.92;11.13;;;0.30;99.90;;;;;;5051957;28;20446;-72
2023/12/05 11:21:09;;;;;;;30.15;14.25;;;0.30;99.90;;;;;;5053167;28;20028;-72
2023/12/05 11:23:57;;;;;;;23.77;13.30;;;0.30;99.90;;;;;;5053386;28;20071;-72
2023/12/05 11:26:45;;;;;;;25.83;12.40;;;0.30;99.90;;;;;;5053005;28;20025;-72
2023/12/05 11:29:43;;;;;;;21.58;12.27;;;0.30;99.90;;;;;;5052748;28;20104;-72
2023/12/05 11:32:48;;;;;;;27.45;14.10;;;0.30;99.90;;;;;;5052944;28;20021;-72
2023/12/05 11:35:29;;;;;;;26.50;13.85;;;0.30;99.90;;;;;;5052975;28;20538;-72
2023/12/05 11:38:17;;;;;;;25.40;13.20;;;0.40;99.90;;;;;;5052998;28;20028;-72
2023/12/05 11:40:42;;;;;;;20.58;11.70;;;0.50;99.90;;;;;;5052760;28;20028;-73
2023/12/05 11:43:10;;;;;;;25.35;11.55;;;0.50;99.90;;;;;;5052784;28;20374;-73
2023/12/05 11:45:37;;;;;;;20.40;10.40;;;0.60;99.90;;;;;;5052822;28;20433;-73
2023/12/05 11:48:03;;;;;;;18.80;10.30;;;0.60;99.90;;;;;;5051581;28;20021;-73
2023/12/05 11:50:43;;;;;;;17.67;9.80;;;0.60;99.90;;;;;;5052670;28;20025;-73
2023/12/05 11:53:11;;;;;;;17.05;9.80;;;0.60;99.90;;;;;;5052911;28;20548;-73
2023/12/05 11:55:45;;;;;;;25.13;12.40;;;0.60;99.90;;;;;;5052795;28;20546;-73
2023/12/05 11:58:34;;;;;;;22.15;13.23;;;0.60;99.90;;;;;;5051542;28;20025;-73
2023/12/05 12:01:00;;;;;;;24.17;13.18;;;0.60;99.90;;;;;;5055341;28;20021;-73
2023/12/05 12:03:27;;;;;;;23.63;13.38;;;0.70;99.90;;;;;;5055192;28;20079;-73
2023/12/05 12:06:02;;;;;;;23.00;12.55;;;0.70;99.90;;;;;;5056474;28;20104;-73
2023/12/05 12:08:28;;;;;;;22.33;13.32;;;0.70;99.90;;;;;;5055369;28;20024;-73
2023/12/05 12:10:56;;;;;;;24.60;13.43;;;0.80;99.90;;;;;;5056307;28;20540;-73
2023/12/05 12:13:21;;;;;;;25.02;13.95;;;0.80;99.90;;;;;;5056693;28;20033;-73
2023/12/05 12:15:47;;;;;;;20.02;13.00;;;0.90;99.90;;;;;;5058003;28;20029;-73
2023/12/05 12:18:13;;;;;;;19.27;12.18;;;0.80;99.90;;;;;;5057154;28;20029;-73
2023/12/05 12:20:39;;;;;;;20.02;10.02;;;0.80;99.90;;;;;;5056304;28;20036;-73
2023/12/05 12:23:04;;;;;;;19.98;10.50;;;0.80;99.90;;;;;;5054899;28;20029;-73
2023/12/05 12:25:30;;;;;;;19.23;11.05;;;0.90;99.90;;;;;;5054766;28;20029;-73
2023/12/05 12:27:56;;;;;;;17.33;9.75;;;0.90;99.90;;;;;;5055833;28;20382;-73
2023/12/05 12:30:22;;;;;;;18.23;8.88;;;0.90;99.90;;;;;;5055796;28;20047;-73
2023/12/05 12:32:56;;;;;;;12.57;8.15;;;0.90;99.90;;;;;;5054628;28;20534;-73
2023/12/05 12:35:23;;;;;;;12.35;7.82;;;0.90;99.90;;;;;;5055684;28;20052;-73
2023/12/05 12:37:50;;;;;;;13.50;7.60;;;0.90;99.90;;;;;;5054186;28;20029;-73
2023/12/05 12:40:18;;;;;;;13.30;7.38;;;0.90;99.90;;;;;;5054299;28;20032;-73
2023/12/05 12:42:49;;;;;;;20.15;9.95;;;0.90;99.90;;;;;;5054213;28;20033;-73